Time;durP1;ratioP1;P1;durP2;ratioP2;P2;SDS_P1;SDS_P2;PMS_P1;PMS_P2;Temp;Humidity;BMP_temperature;BMP_pressure;BME280_temperature;BME280_humidity;BME280_pressure;Samples;Min_cycle;Max_cycle;Signal;HPM_P1;HPM_P2
2022/05/23 00:01:59;;;;;;;20.98;9.10;;;18.50;93.10;;;;;;5034152;28;20036;-80
2022/05/23 00:04:25;;;;;;;4.28;1.80;;;18.40;93.10;;;;;;5037373;28;20033;-81
2022/05/23 00:06:52;;;;;;;17.00;7.18;;;18.40;93.40;;;;;;5031520;28;20052;-84
2022/05/23 00:09:18;;;;;;;5.40;2.25;;;18.40;93.30;;;;;;5030098;28;20024;-81
2022/05/23 00:11:45;;;;;;;4.55;2.10;;;18.40;93.50;;;;;;5031644;28;20040;-81
2022/05/23 00:14:11;;;;;;;6.78;2.63;;;18.40;93.50;;;;;;5042792;28;20033;-83
2022/05/23 00:16:43;;;;;;;3.85;1.73;;;18.40;93.40;;;;;;5052477;28;20048;-86
2022/05/23 00:19:10;;;;;;;3.83;1.80;;;18.40;93.50;;;;;;5047803;28;20045;-82
2022/05/23 00:21:38;;;;;;;7.88;2.50;;;18.30;93.70;;;;;;5048734;28;20013;-85
2022/05/23 00:24:04;;;;;;;6.25;3.20;;;18.30;93.70;;;;;;5048205;28;20022;-81
2022/05/23 00:26:30;;;;;;;5.60;2.20;;;18.40;93.90;;;;;;5042912;28;20030;-79
2022/05/23 00:28:55;;;;;;;6.93;3.17;;;18.30;94.00;;;;;;5031495;28;20534;-81
2022/05/23 00:31:21;;;;;;;65.68;29.88;;;18.40;94.00;;;;;;5032732;28;20558;-80
2022/05/23 00:36:33;;;;;;;4.15;1.92;;;18.30;94.10;;;;;;5034004;28;20037;-79
2022/05/23 00:38:59;;;;;;;4.78;1.95;;;18.20;94.40;;;;;;5033809;28;20107;-80
2022/05/23 00:44:09;;;;;;;14.30;7.55;;;18.10;94.50;;;;;;5026930;28;20579;-81
2022/05/23 00:46:35;;;;;;;6.85;3.20;;;18.10;94.50;;;;;;5031848;28;20116;-83
2022/05/23 00:49:06;;;;;;;8.02;3.13;;;18.10;94.70;;;;;;5033423;28;20051;-79
2022/05/23 00:51:32;;;;;;;11.13;4.28;;;18.10;94.70;;;;;;5034539;28;20025;-83
2022/05/23 00:54:00;;;;;;;6.05;2.17;;;18.10;94.60;;;;;;5030213;28;20029;-81
2022/05/23 00:56:37;;;;;;;4.45;2.38;;;18.20;94.80;;;;;;5029696;28;20060;-80
2022/05/23 00:59:05;;;;;;;5.25;2.33;;;18.20;94.80;;;;;;5032103;28;20500;-79
2022/05/23 01:01:34;;;;;;;4.13;2.00;;;18.10;94.90;;;;;;5025707;28;20041;-79
2022/05/23 01:04:01;;;;;;;6.03;2.00;;;18.00;95.10;;;;;;5010713;28;20033;-81
2022/05/23 01:06:27;;;;;;;6.13;1.77;;;18.00;95.30;;;;;;5027368;28;20121;-79
2022/05/23 01:08:55;;;;;;;4.13;1.90;;;17.90;95.50;;;;;;5033532;28;20049;-82
2022/05/23 01:11:22;;;;;;;4.88;2.13;;;17.90;95.60;;;;;;5029437;28;20033;-82
2022/05/23 01:13:48;;;;;;;7.32;2.92;;;17.90;95.60;;;;;;5033402;28;20032;-83
2022/05/23 01:16:13;;;;;;;4.50;1.80;;;17.90;95.60;;;;;;5028718;28;20100;-81
2022/05/23 01:18:40;;;;;;;10.18;3.90;;;17.90;95.70;;;;;;5022088;28;20061;-82
2022/05/23 01:21:09;;;;;;;2.72;1.80;;;18.00;95.70;;;;;;5028121;28;20383;-83
2022/05/23 01:23:52;;;;;;;3.67;1.90;;;18.00;95.70;;;;;;5032700;28;20033;-84
2022/05/23 01:26:17;;;;;;;4.10;1.77;;;18.00;95.70;;;;;;5027385;28;20036;-81
2022/05/23 01:28:44;;;;;;;3.03;2.03;;;17.90;95.70;;;;;;5032719;28;20025;-82
2022/05/23 01:31:12;;;;;;;4.85;1.92;;;17.90;95.70;;;;;;5023377;28;20122;-85
2022/05/23 01:33:39;;;;;;;3.67;1.70;;;;;;;;;;5025428;28;20072;-84
2022/05/23 01:36:09;;;;;;;4.93;1.83;;;18.00;95.50;;;;;;5026275;28;20037;-84
2022/05/23 01:38:35;;;;;;;4.00;1.90;;;18.00;95.90;;;;;;5025507;28;20037;-83
2022/05/23 01:41:01;;;;;;;4.30;2.10;;;18.00;95.80;;;;;;5024133;28;20033;-82
2022/05/23 01:43:26;;;;;;;11.48;4.80;;;18.10;95.70;;;;;;5029077;28;20041;-82
2022/05/23 01:45:52;;;;;;;3.47;1.70;;;18.10;95.60;;;;;;5027978;28;20029;-85
2022/05/23 01:48:18;;;;;;;6.13;2.35;;;18.10;95.60;;;;;;5022360;28;20026;-82
2022/05/23 01:50:44;;;;;;;2.75;1.70;;;18.10;95.70;;;;;;5023336;28;20441;-81
2022/05/23 01:53:09;;;;;;;4.40;1.90;;;18.10;95.80;;;;;;5027000;28;20083;-81
2022/05/23 01:55:36;;;;;;;2.90;1.98;;;18.10;95.90;;;;;;5022570;28;20219;-82
2022/05/23 01:58:03;;;;;;;5.90;2.33;;;18.10;95.90;;;;;;5024041;28;20132;-83
2022/05/23 02:03:14;;;;;;;4.82;2.50;;;18.10;96.20;;;;;;5025967;28;20048;-80
2022/05/23 02:05:40;;;;;;;6.43;2.72;;;18.10;96.20;;;;;;5025546;28;20503;-80
2022/05/23 02:08:06;;;;;;;4.68;2.25;;;18.00;96.30;;;;;;5026792;28;20052;-80
2022/05/23 02:10:32;;;;;;;4.28;2.30;;;18.00;96.50;;;;;;5024180;28;20053;-79
2022/05/23 02:13:00;;;;;;;4.57;2.20;;;18.10;96.80;;;;;;5027626;28;20465;-80
2022/05/23 02:15:28;;;;;;;5.47;2.25;;;18.10;96.80;;;;;;5013752;28;20041;-80
2022/05/23 02:17:57;;;;;;;4.22;1.98;;;18.10;96.80;;;;;;5029351;28;20490;-80
2022/05/23 02:20:23;;;;;;;4.85;3.05;;;18.10;96.70;;;;;;5029498;28;20034;-80
2022/05/23 02:22:48;;;;;;;6.32;2.67;;;18.20;97.00;;;;;;5024606;28;20044;-79
2022/05/23 02:25:14;;;;;;;5.97;2.20;;;18.40;97.40;;;;;;5022193;28;20033;-81
2022/05/23 02:27:40;;;;;;;5.03;2.20;;;18.40;98.20;;;;;;5032219;28;20083;-79
2022/05/23 02:30:07;;;;;;;6.93;2.30;;;18.30;98.70;;;;;;5027497;28;20029;-80
2022/05/23 02:32:32;;;;;;;4.53;2.53;;;18.20;99.80;;;;;;5029382;28;20040;-80
2022/05/23 02:34:58;;;;;;;7.15;2.80;;;18.20;99.90;;;;;;5025771;28;20891;-81
2022/05/23 02:37:24;;;;;;;7.45;3.15;;;18.10;99.90;;;;;;5023578;28;20461;-82
2022/05/23 02:39:49;;;;;;;8.40;3.10;;;17.90;99.90;;;;;;5028064;28;20034;-79
2022/05/23 02:42:16;;;;;;;6.03;2.72;;;17.70;99.90;;;;;;5027000;28;20025;-83
2022/05/23 02:44:41;;;;;;;7.95;3.30;;;17.50;99.90;;;;;;5011191;28;20042;-82
2022/05/23 02:47:07;;;;;;;19.35;7.45;;;17.40;99.90;;;;;;5029601;28;20044;-80
2022/05/23 02:49:33;;;;;;;4.75;2.67;;;17.40;99.90;;;;;;5025408;28;20079;-82
2022/05/23 02:51:58;;;;;;;4.93;3.03;;;17.30;99.90;;;;;;5030532;28;20025;-83
2022/05/23 02:54:24;;;;;;;7.22;3.83;;;17.20;99.90;;;;;;5027627;28;20060;-79
2022/05/23 02:56:50;;;;;;;7.43;3.40;;;17.10;99.90;;;;;;5026222;28;20037;-83
2022/05/23 02:59:15;;;;;;;4.97;2.67;;;17.00;99.90;;;;;;5011249;28;20183;-82
2022/05/23 03:04:26;;;;;;;5.45;3.10;;;16.90;99.90;;;;;;5024819;28;20032;-82
2022/05/23 03:06:52;;;;;;;5.85;2.83;;;16.80;99.90;;;;;;5021845;28;20091;-83
2022/05/23 03:09:17;;;;;;;5.72;2.40;;;16.80;99.90;;;;;;5022244;28;20029;-82
2022/05/23 03:11:43;;;;;;;6.82;2.88;;;16.70;99.90;;;;;;5033294;28;20088;-81
2022/05/23 03:14:09;;;;;;;6.00;3.30;;;16.70;99.90;;;;;;5031807;28;20029;-79
2022/05/23 03:16:35;;;;;;;4.70;2.55;;;16.70;99.90;;;;;;5031682;28;20390;-78
2022/05/23 03:19:00;;;;;;;6.90;2.97;;;16.70;99.90;;;;;;5031398;28;20442;-80
2022/05/23 03:27:00;;;;;;;10.50;3.20;;;16.50;99.90;;;;;;5036407;28;20040;-80
2022/05/23 03:29:28;;;;;;;4.55;3.03;;;16.40;99.90;;;;;;5030206;28;20053;-81
2022/05/23 03:31:53;;;;;;;6.10;2.55;;;16.40;99.90;;;;;;5031465;28;20052;-82
2022/05/23 03:34:19;;;;;;;7.32;3.00;;;16.50;99.90;;;;;;5045962;28;20048;-79
2022/05/23 03:36:45;;;;;;;5.97;3.35;;;16.40;99.90;;;;;;5030879;28;20029;-79
2022/05/23 03:39:10;;;;;;;8.52;3.83;;;16.30;99.90;;;;;;5035266;28;20018;-83
2022/05/23 03:41:38;;;;;;;7.03;3.67;;;16.20;99.90;;;;;;5047575;28;20021;-84
2022/05/23 03:44:07;;;;;;;7.30;3.60;;;16.10;99.90;;;;;;5049555;28;20025;-83
2022/05/23 03:46:34;;;;;;;6.55;3.63;;;16.00;99.90;;;;;;5045013;28;20033;-83
2022/05/23 03:49:01;;;;;;;8.50;3.78;;;15.90;99.90;;;;;;5038279;28;20040;-81
2022/05/23 03:51:27;;;;;;;7.97;3.85;;;15.90;99.90;;;;;;5035207;28;20101;-79
2022/05/23 03:53:53;;;;;;;5.10;3.80;;;15.90;99.90;;;;;;5030890;28;20029;-81
2022/05/23 03:56:19;;;;;;;5.55;3.75;;;15.90;99.90;;;;;;5030150;28;20056;-82
2022/05/23 03:58:45;;;;;;;6.75;3.60;;;15.90;99.90;;;;;;5017197;28;20083;-81
2022/05/23 04:01:18;;;;;;;8.95;3.50;;;15.80;99.90;;;;;;5023880;28;20026;-80
2022/05/23 04:03:44;;;;;;;7.13;3.80;;;15.80;99.90;;;;;;5048828;28;20021;-82
2022/05/23 04:06:10;;;;;;;4.57;3.05;;;15.90;99.90;;;;;;5035344;28;20048;-83
2022/05/23 04:08:36;;;;;;;5.05;3.50;;;16.00;99.90;;;;;;5041934;28;20796;-80
2022/05/23 04:11:03;;;;;;;5.55;3.05;;;16.10;99.90;;;;;;5034167;28;20029;-82
2022/05/23 04:13:30;;;;;;;6.45;3.22;;;16.00;99.90;;;;;;5033509;28;20577;-81
2022/05/23 04:15:56;;;;;;;5.50;3.00;;;15.90;99.90;;;;;;5025165;28;20026;-81
2022/05/23 04:18:21;;;;;;;4.05;2.85;;;15.90;99.90;;;;;;5031993;28;20048;-80
2022/05/23 04:20:48;;;;;;;9.52;3.58;;;15.90;99.90;;;;;;5031968;28;20121;-81
2022/05/23 04:23:14;;;;;;;4.60;3.05;;;16.00;99.90;;;;;;5031459;28;20120;-82
2022/05/23 04:25:41;;;;;;;4.93;3.35;;;15.80;99.90;;;;;;5033309;28;20021;-82
2022/05/23 04:28:07;;;;;;;5.28;3.33;;;18.00;99.90;;;;;;5035410;28;20028;-82
2022/05/23 04:30:33;;;;;;;6.53;3.47;;;;;;;;;;5035732;28;20055;-81
2022/05/23 04:35:44;;;;;;;6.68;3.08;;;15.70;99.90;;;;;;5029155;28;20114;-80
2022/05/23 04:38:11;;;;;;;5.68;3.10;;;16.40;99.90;;;;;;5031213;28;20049;-82
2022/05/23 04:40:37;;;;;;;4.00;2.75;;;;;;;;;;5031252;28;20076;-81
2022/05/23 04:43:03;;;;;;;7.28;3.08;;;16.00;99.90;;;;;;5033213;28;20022;-82
2022/05/23 04:45:30;;;;;;;6.53;3.08;;;16.10;99.90;;;;;;5024834;28;20030;-78
2022/05/23 04:50:40;;;;;;;4.63;2.70;;;16.10;99.90;;;;;;5030508;28;20124;-81
2022/05/23 04:53:06;;;;;;;6.75;3.13;;;16.10;99.90;;;;;;5027404;28;20022;-80
2022/05/23 04:55:33;;;;;;;3.47;2.60;;;16.10;99.90;;;;;;5025973;28;20112;-82
2022/05/23 04:57:59;;;;;;;6.10;3.05;;;16.10;99.90;;;;;;5007911;28;20056;-83
2022/05/23 05:00:26;;;;;;;3.75;2.80;;;16.10;99.90;;;;;;5021835;28;20065;-83
2022/05/23 05:02:52;;;;;;;5.20;2.70;;;16.00;99.90;;;;;;5024852;28;20453;-83
2022/05/23 05:05:19;;;;;;;4.30;2.78;;;16.30;99.90;;;;;;5026853;28;20049;-78
2022/05/23 05:07:45;;;;;;;4.35;2.70;;;16.20;99.90;;;;;;5026352;28;20033;-82
2022/05/23 05:10:11;;;;;;;6.00;3.05;;;16.20;99.90;;;;;;5027111;28;20029;-83
2022/05/23 05:12:37;;;;;;;7.60;3.70;;;16.20;99.90;;;;;;5023853;28;20084;-81
2022/05/23 05:15:03;;;;;;;5.82;3.60;;;16.20;99.90;;;;;;5007229;28;20030;-84
2022/05/23 05:17:29;;;;;;;4.60;2.83;;;16.30;99.90;;;;;;5015444;28;20135;-84
2022/05/23 05:19:54;;;;;;;5.68;3.20;;;16.40;99.90;;;;;;5016032;28;20029;-82
2022/05/23 05:22:20;;;;;;;7.13;3.45;;;16.40;99.90;;;;;;5020827;28;20072;-85
2022/05/23 05:24:46;;;;;;;6.18;4.10;;;17.30;99.90;;;;;;5017133;28;20037;-84
2022/05/23 05:27:12;;;;;;;7.75;3.80;;;16.50;99.90;;;;;;5025852;28;20121;-83
2022/05/23 05:29:39;;;;;;;8.02;3.08;;;16.50;99.90;;;;;;5025859;28;20030;-80
2022/05/23 05:32:28;;;;;;;6.00;3.28;;;16.70;99.90;;;;;;5034586;28;20022;-82
2022/05/23 05:35:02;;;;;;;6.65;3.35;;;16.80;99.90;;;;;;5034080;28;20033;-83
2022/05/23 05:37:35;;;;;;;7.22;3.38;;;17.00;99.90;;;;;;5035093;28;20031;-83
2022/05/23 05:40:03;;;;;;;4.65;3.00;;;17.30;99.90;;;;;;5038042;28;20018;-83
2022/05/23 05:42:36;;;;;;;6.30;2.80;;;17.60;99.90;;;;;;5041283;28;20554;-84
2022/05/23 05:45:12;;;;;;;4.85;2.85;;;17.70;99.90;;;;;;5037654;28;20033;-83
2022/05/23 05:47:41;;;;;;;6.93;3.30;;;17.70;99.90;;;;;;5039675;28;20510;-82
2022/05/23 05:50:23;;;;;;;4.88;3.20;;;17.60;99.90;;;;;;5036774;28;20045;-81
2022/05/23 05:52:51;;;;;;;5.10;3.63;;;17.50;99.90;;;;;;5039247;28;20479;-79
2022/05/23 05:55:17;;;;;;;7.03;3.40;;;17.50;99.90;;;;;;5035070;28;20028;-79
2022/05/23 05:57:43;;;;;;;6.78;3.25;;;17.90;99.90;;;;;;5038379;28;20040;-82
2022/05/23 06:00:09;;;;;;;6.03;3.05;;;17.90;99.90;;;;;;5039299;28;20029;-82
2022/05/23 06:02:34;;;;;;;6.15;3.13;;;17.80;99.90;;;;;;5041077;28;20126;-81
2022/05/23 06:05:00;;;;;;;5.55;2.80;;;17.70;99.90;;;;;;5035438;28;20116;-81
2022/05/23 06:12:58;;;;;;;16.10;3.00;;;17.90;99.90;;;;;;5035750;28;20117;-84
2022/05/23 06:15:25;;;;;;;5.57;2.78;;;17.90;99.90;;;;;;5039536;28;20057;-84
2022/05/23 06:17:52;;;;;;;5.78;2.55;;;17.90;99.90;;;;;;5039540;28;20133;-82
2022/05/23 06:20:19;;;;;;;5.63;3.10;;;17.80;99.90;;;;;;5038782;28;20344;-81
2022/05/23 06:22:45;;;;;;;6.72;3.47;;;;;;;;;;5039544;28;20029;-83
2022/05/23 06:25:13;;;;;;;6.30;3.13;;;17.70;99.90;;;;;;5043854;28;20026;-84
2022/05/23 06:27:39;;;;;;;6.97;3.67;;;17.60;99.90;;;;;;5050330;28;20079;-84
2022/05/23 06:30:07;;;;;;;5.18;2.83;;;17.70;99.90;;;;;;5045159;28;20055;-81
2022/05/23 06:32:33;;;;;;;8.85;3.28;;;17.80;99.90;;;;;;5039007;28;20029;-79
2022/05/23 06:34:59;;;;;;;4.55;2.90;;;17.70;99.90;;;;;;5038923;28;20088;-80
2022/05/23 06:37:25;;;;;;;4.30;3.08;;;17.80;99.90;;;;;;5038445;28;20057;-81
2022/05/23 06:39:51;;;;;;;5.00;3.10;;;17.90;99.90;;;;;;5038598;28;20025;-84
2022/05/23 06:42:16;;;;;;;4.88;2.80;;;18.10;99.90;;;;;;5036347;28;20034;-82
2022/05/23 06:44:42;;;;;;;8.20;2.83;;;18.10;99.90;;;;;;5037197;28;20021;-81
2022/05/23 06:47:08;;;;;;;4.57;2.90;;;18.20;99.90;;;;;;5037342;28;20018;-81
2022/05/23 06:49:34;;;;;;;4.55;2.65;;;18.30;99.90;;;;;;5037048;28;20475;-79
2022/05/23 06:52:00;;;;;;;4.32;2.53;;;18.30;99.90;;;;;;5034147;28;20041;-82
2022/05/23 06:54:26;;;;;;;4.25;3.17;;;18.30;99.90;;;;;;5032339;28;20056;-86
2022/05/23 06:56:51;;;;;;;4.10;2.65;;;18.30;99.90;;;;;;5028846;28;20038;-80
2022/05/23 06:59:19;;;;;;;5.13;3.03;;;18.20;99.90;;;;;;5039254;28;20044;-83
2022/05/23 07:01:46;;;;;;;6.35;2.92;;;18.30;99.90;;;;;;5039370;28;20026;-82
2022/05/23 07:04:12;;;;;;;9.77;3.03;;;18.50;99.90;;;;;;5034859;28;20029;-83
2022/05/23 07:12:27;;;;;;;5.25;3.15;;;18.50;99.90;;;;;;5031432;28;20040;-83
2022/05/23 07:14:56;;;;;;;5.43;3.00;;;18.30;99.90;;;;;;5039606;28;20026;-84
2022/05/23 07:17:23;;;;;;;6.88;3.00;;;18.30;99.90;;;;;;5038001;28;20417;-82
2022/05/23 07:19:49;;;;;;;4.38;2.70;;;18.40;99.90;;;;;;5034574;28;20038;-83
2022/05/23 07:22:15;;;;;;;6.00;2.83;;;18.50;99.90;;;;;;5037503;28;20028;-83
2022/05/23 07:24:41;;;;;;;5.50;2.78;;;18.60;99.90;;;;;;5034964;28;20384;-82
2022/05/23 07:27:07;;;;;;;4.13;3.03;;;18.90;99.90;;;;;;5038599;28;20021;-83
2022/05/23 07:29:33;;;;;;;3.90;2.63;;;18.90;99.90;;;;;;5034312;28;20429;-85
2022/05/23 07:31:59;;;;;;;5.15;2.88;;;19.00;99.90;;;;;;5035107;28;20021;-80
2022/05/23 07:34:24;;;;;;;7.55;2.58;;;19.30;99.90;;;;;;5035607;28;20029;-80
2022/05/23 07:36:50;;;;;;;4.63;2.90;;;19.30;99.90;;;;;;5032620;28;20103;-84
2022/05/23 07:39:16;;;;;;;6.45;2.95;;;19.50;99.90;;;;;;5035725;28;20021;-81
2022/05/23 07:41:43;;;;;;;5.60;2.92;;;19.60;99.90;;;;;;5034950;28;20021;-79
2022/05/23 07:44:11;;;;;;;6.28;3.00;;;19.80;99.90;;;;;;5036784;28;20025;-83
2022/05/23 07:46:40;;;;;;;6.47;2.90;;;19.90;99.90;;;;;;5016122;28;20052;-82
2022/05/23 07:49:06;;;;;;;5.70;2.90;;;19.90;99.90;;;;;;5030646;28;20029;-84
2022/05/23 07:51:32;;;;;;;6.15;3.30;;;19.80;99.90;;;;;;5030493;28;20041;-78
2022/05/23 08:02:15;;;;;;;5.10;2.58;;;20.20;99.90;;;;;;5025713;28;20121;-84
2022/05/23 08:04:42;;;;;;;4.05;2.63;;;20.40;99.90;;;;;;5035526;28;20037;-82
2022/05/23 08:07:09;;;;;;;3.85;2.25;;;20.60;99.90;;;;;;5032919;28;20391;-80
2022/05/23 08:09:36;;;;;;;7.03;2.80;;;20.70;99.90;;;;;;5033773;28;20017;-81
2022/05/23 08:12:04;;;;;;;5.10;2.78;;;20.90;99.90;;;;;;5033813;28;20025;-81
2022/05/23 08:14:29;;;;;;;4.90;2.80;;;21.10;99.90;;;;;;5032903;28;20120;-83
2022/05/23 08:16:55;;;;;;;5.50;2.72;;;21.30;99.90;;;;;;5035153;28;20049;-81
2022/05/23 08:19:21;;;;;;;6.65;2.50;;;21.40;99.90;;;;;;5034545;28;20026;-83
2022/05/23 08:21:50;;;;;;;5.15;2.90;;;21.60;99.90;;;;;;5031191;28;20475;-81
2022/05/23 08:24:17;;;;;;;7.68;2.92;;;21.80;99.90;;;;;;5033648;28;20032;-84
2022/05/23 08:26:43;;;;;;;5.07;2.80;;;21.60;99.90;;;;;;5031416;28;20038;-81
2022/05/23 08:29:09;;;;;;;5.40;2.83;;;21.60;99.90;;;;;;5035859;28;20039;-82
2022/05/23 08:31:36;;;;;;;4.90;2.60;;;21.90;99.90;;;;;;5033733;28;20124;-83
2022/05/23 08:34:02;;;;;;;3.78;2.22;;;21.80;99.90;;;;;;5030068;28;20025;-82
2022/05/23 08:36:28;;;;;;;6.50;2.80;;;21.80;99.90;;;;;;5033045;28;20060;-80
2022/05/23 08:38:54;;;;;;;5.20;2.35;;;21.90;99.90;;;;;;5036341;28;20041;-82
2022/05/23 08:41:28;;;;;;;4.72;2.28;;;22.00;99.90;;;;;;5031124;28;20047;-83
2022/05/23 08:44:31;;;;;;;5.47;2.50;;;22.10;99.90;;;;;;5033806;28;20029;-81
2022/05/23 08:47:05;;;;;;;9.35;2.67;;;22.10;99.90;;;;;;5034335;28;20026;-83
2022/05/23 08:50:01;;;;;;;6.18;2.22;;;22.20;99.90;;;;;;5036022;28;20026;-83
2022/05/23 08:52:38;;;;;;;5.20;2.40;;;22.50;99.90;;;;;;5024137;28;20017;-82
2022/05/23 08:55:33;;;;;;;8.88;2.60;;;22.50;99.90;;;;;;5034089;28;20029;-81
2022/05/23 08:58:05;;;;;;;5.72;2.40;;;22.40;99.90;;;;;;5031635;28;20931;-81
2022/05/23 09:00:52;;;;;;;5.03;2.30;;;22.50;99.90;;;;;;5031325;28;20026;-82
2022/05/23 09:03:28;;;;;;;7.40;2.63;;;22.30;99.90;;;;;;5028617;28;20030;-80
2022/05/23 09:06:36;;;;;;;5.97;3.67;;;22.10;99.90;;;;;;5040814;28;20427;-80
2022/05/23 09:09:07;;;;;;;13.27;8.05;;;22.30;99.90;;;;;;5033798;28;20036;-81
2022/05/23 09:11:50;;;;;;;4.43;2.53;;;22.30;99.90;;;;;;5033538;28;20022;-79
2022/05/23 09:14:18;;;;;;;6.63;2.47;;;22.30;99.90;;;;;;5036464;28;20026;-79
2022/05/23 09:16:48;;;;;;;7.70;2.65;;;22.40;99.90;;;;;;5033115;28;20025;-79
2022/05/23 09:19:34;;;;;;;6.00;2.80;;;22.40;99.90;;;;;;5035107;28;20025;-80
2022/05/23 09:22:33;;;;;;;5.22;2.53;;;22.20;99.90;;;;;;5037262;28;20064;-81
2022/05/23 09:25:01;;;;;;;7.97;2.75;;;22.00;99.90;;;;;;5054959;28;20037;-81
2022/05/23 09:27:36;;;;;;;6.22;3.08;;;21.90;99.90;;;;;;5035411;28;20029;-79
2022/05/23 09:30:12;;;;;;;12.80;3.40;;;21.80;99.90;;;;;;5035280;28;20033;-77
2022/05/23 09:32:45;;;;;;;10.05;3.38;;;21.60;99.90;;;;;;5045526;28;20028;-79
2022/05/23 09:35:24;;;;;;;8.00;3.05;;;21.40;99.90;;;;;;5034081;28;20029;-79
2022/05/23 09:38:12;;;;;;;11.00;2.97;;;21.30;99.90;;;;;;5037759;28;20033;-82
2022/05/23 09:40:38;;;;;;;8.93;3.03;;;21.40;99.90;;;;;;5038925;28;20037;-80
2022/05/23 09:49:23;;;;;;;5.55;3.05;;;21.10;99.90;;;;;;5036756;28;20104;-83
2022/05/23 09:51:49;;;;;;;6.20;3.60;;;21.00;99.90;;;;;;5037789;28;20495;-80
2022/05/23 09:54:38;;;;;;;8.13;3.30;;;21.00;99.90;;;;;;5038944;28;20271;-78
2022/05/23 09:57:25;;;;;;;6.13;3.13;;;21.20;99.90;;;;;;5030745;28;20048;-79
2022/05/23 10:00:05;;;;;;;9.07;3.28;;;21.40;99.90;;;;;;5032018;28;20452;-82
2022/05/23 10:02:37;;;;;;;6.30;3.10;;;21.70;99.90;;;;;;5037128;28;20480;-81
2022/05/23 10:05:06;;;;;;;5.53;3.10;;;21.90;99.90;;;;;;5038623;28;20033;-80
2022/05/23 10:07:36;;;;;;;4.47;3.00;;;22.10;99.90;;;;;;5037808;28;20030;-85
2022/05/23 10:10:24;;;;;;;7.38;2.88;;;22.10;99.90;;;;;;5036190;28;20033;-81
2022/05/23 10:12:50;;;;;;;8.57;3.35;;;22.20;99.90;;;;;;5033928;28;20163;-82
2022/05/23 10:15:32;;;;;;;6.20;2.65;;;22.20;99.90;;;;;;5049430;28;20527;-81
2022/05/23 10:18:10;;;;;;;5.38;2.55;;;22.10;99.90;;;;;;5033597;28;20052;-82
2022/05/23 10:20:41;;;;;;;6.22;2.90;;;22.30;99.90;;;;;;5021435;28;20030;-83
2022/05/23 10:23:21;;;;;;;5.72;2.70;;;22.50;99.90;;;;;;5036239;28;20040;-82
2022/05/23 10:25:58;;;;;;;8.20;3.05;;;22.60;99.90;;;;;;5031974;28;20033;-82
2022/05/23 10:28:48;;;;;;;8.05;3.28;;;22.60;99.90;;;;;;5037349;28;20120;-82
2022/05/23 10:31:47;;;;;;;5.40;3.10;;;22.60;99.90;;;;;;5048691;28;20035;-81
2022/05/23 10:34:50;;;;;;;4.90;2.72;;;22.50;99.90;;;;;;5039457;28;20022;-83
2022/05/23 10:37:20;;;;;;;6.38;3.30;;;22.50;99.90;;;;;;5033162;28;20048;-81
2022/05/23 10:42:55;;;;;;;9.15;3.97;;;22.50;99.90;;;;;;5036851;28;20502;-81
2022/05/23 10:45:40;;;;;;;13.43;7.50;;;22.30;99.90;;;;;;5030645;28;20029;-81
2022/05/23 10:48:54;;;;;;;6.53;3.47;;;22.10;99.90;;;;;;5035656;28;20029;-82
2022/05/23 10:51:39;;;;;;;5.60;3.08;;;22.00;99.90;;;;;;5037869;28;20030;-83
2022/05/23 10:54:13;;;;;;;7.47;3.35;;;21.90;99.90;;;;;;5039397;28;20018;-80
2022/05/23 10:57:02;;;;;;;7.00;3.55;;;21.90;99.90;;;;;;5037525;28;20029;-84
2022/05/23 10:59:42;;;;;;;6.78;3.38;;;21.80;99.90;;;;;;5036155;28;20581;-81
2022/05/23 11:02:44;;;;;;;8.35;3.22;;;21.80;99.90;;;;;;5036119;28;20033;-80
2022/05/23 11:05:47;;;;;;;7.05;3.30;;;21.80;99.90;;;;;;5038914;28;20040;-80
2022/05/23 11:08:28;;;;;;;7.03;3.17;;;21.90;99.90;;;;;;5039441;28;20035;-81
2022/05/23 11:11:21;;;;;;;7.88;3.58;;;22.00;99.90;;;;;;5032988;28;20017;-79
2022/05/23 11:14:10;;;;;;;7.10;4.20;;;22.10;99.90;;;;;;5016974;28;20033;-82
2022/05/23 11:17:20;;;;;;;8.07;3.63;;;22.30;99.90;;;;;;5036143;28;20037;-82
2022/05/23 11:19:53;;;;;;;;;;;22.40;99.90;;;;;;5028226;28;20038;-84
2022/05/23 11:22:23;;;;;;;6.10;3.40;;;22.60;99.90;;;;;;5028511;28;19906;-82
2022/05/23 11:25:07;;;;;;;;;;;22.60;99.90;;;;;;5033319;28;20028;-83
2022/05/23 11:36:01;;;;;;;8.75;3.80;;;22.50;99.90;;;;;;5037149;28;20033;-81
2022/05/23 11:38:29;;;;;;;8.13;3.10;;;22.30;99.90;;;;;;5038331;28;20022;-82
2022/05/23 11:41:04;;;;;;;7.85;3.60;;;22.30;99.90;;;;;;5038711;28;20022;-82
2022/05/23 11:43:30;;;;;;;5.60;3.22;;;22.20;99.90;;;;;;5036168;28;20483;-80
2022/05/23 11:46:05;;;;;;;7.72;3.55;;;22.00;99.90;;;;;;5036263;28;20029;-82
2022/05/23 11:48:41;;;;;;;7.47;3.33;;;21.90;99.90;;;;;;5037275;28;20022;-81
2022/05/23 11:51:17;;;;;;;7.93;3.45;;;21.80;99.90;;;;;;5018640;28;20085;-80
2022/05/23 11:54:04;;;;;;;9.88;3.50;;;21.90;99.90;;;;;;5045921;28;20022;-81
2022/05/23 11:57:14;;;;;;;6.95;3.55;;;21.90;99.90;;;;;;5039129;28;20516;-81
2022/05/23 11:59:40;;;;;;;8.65;3.70;;;22.00;99.90;;;;;;5033096;28;20100;-82
2022/05/23 12:02:11;;;;;;;9.77;4.00;;;22.30;99.90;;;;;;5032687;28;20036;-82
2022/05/23 12:04:50;;;;;;;7.30;3.95;;;22.50;99.90;;;;;;5027067;28;20421;-80
2022/05/23 12:07:31;;;;;;;9.10;3.88;;;22.50;99.90;;;;;;5028837;28;20399;-81
2022/05/23 12:10:22;;;;;;;6.70;3.55;;;22.70;99.90;;;;;;5034801;28;20099;-83
2022/05/23 12:12:52;;;;;;;7.35;3.50;;;22.70;99.90;;;;;;5035475;28;20029;-83
2022/05/23 12:15:42;;;;;;;8.68;4.32;;;22.80;99.90;;;;;;5030798;28;20032;-83
2022/05/23 12:18:22;;;;;;;6.55;3.78;;;22.90;99.90;;;;;;5028732;28;20149;-81
2022/05/23 12:20:51;;;;;;;8.45;3.45;;;22.90;99.90;;;;;;5035322;28;20030;-80
2022/05/23 12:23:37;;;;;;;5.60;3.15;;;22.80;99.90;;;;;;5035918;28;20036;-84
2022/05/23 12:26:14;;;;;;;8.02;3.80;;;23.40;99.90;;;;;;5032190;28;20029;-82
2022/05/23 12:28:58;;;;;;;9.93;3.50;;;24.00;99.90;;;;;;5034932;28;20037;-81
2022/05/23 12:31:27;;;;;;;6.82;3.45;;;24.10;99.90;;;;;;5034941;28;20108;-82
2022/05/23 12:34:10;;;;;;;7.28;3.33;;;24.10;99.90;;;;;;5039451;28;20055;-82
2022/05/23 12:36:40;;;;;;;7.22;3.40;;;23.90;99.90;;;;;;5044469;28;20022;-86
2022/05/23 12:39:42;;;;;;;7.78;3.38;;;23.90;99.90;;;;;;5052660;28;20104;-85
2022/05/23 12:42:46;;;;;;;6.25;3.08;;;24.10;99.90;;;;;;5054325;28;20044;-84
2022/05/23 12:45:29;;;;;;;8.63;3.45;;;24.30;99.90;;;;;;5049441;28;20145;-85
2022/05/23 12:48:01;;;;;;;8.05;3.35;;;24.50;99.90;;;;;;5056976;28;20092;-85
2022/05/23 12:50:47;;;;;;;6.40;2.90;;;24.50;99.90;;;;;;5060949;28;20014;-85
2022/05/23 12:53:21;;;;;;;7.78;2.83;;;24.60;99.90;;;;;;5061276;28;20024;-84
2022/05/23 12:56:22;;;;;;;9.35;2.67;;;24.90;99.90;;;;;;5059077;28;20084;-86
2022/05/23 12:59:15;;;;;;;5.68;2.50;;;25.10;99.90;;;;;;5050472;28;20105;-81
2022/05/23 13:01:43;;;;;;;6.28;2.80;;;25.20;99.90;;;;;;5042019;28;20036;-82
2022/05/23 13:04:27;;;;;;;7.80;2.53;;;25.00;99.90;;;;;;5038489;28;20025;-82
2022/05/23 13:07:08;;;;;;;9.25;3.28;;;24.80;99.90;;;;;;5040103;28;20038;-82
2022/05/23 13:09:50;;;;;;;6.15;2.72;;;24.80;99.90;;;;;;5040795;28;20037;-81
2022/05/23 13:12:31;;;;;;;6.30;3.17;;;24.50;99.90;;;;;;5041777;28;20030;-81
2022/05/23 13:14:59;;;;;;;8.43;2.40;;;24.40;99.90;;;;;;5040655;28;20034;-81
2022/05/23 13:17:39;;;;;;;8.90;2.65;;;24.20;99.90;;;;;;5041461;28;20036;-81
2022/05/23 13:23:02;;;;;;;7.88;3.30;;;24.00;99.90;;;;;;5044245;28;20498;-82
2022/05/23 13:25:29;;;;;;;9.32;3.00;;;24.10;99.90;;;;;;5040661;28;20029;-81
2022/05/23 13:27:58;;;;;;;9.43;3.15;;;24.10;99.90;;;;;;5042749;28;20559;-81
2022/05/23 13:30:29;;;;;;;11.85;3.00;;;24.10;99.90;;;;;;5041088;28;20091;-80
2022/05/23 13:33:07;;;;;;;8.93;3.00;;;24.20;99.90;;;;;;5041768;28;20487;-79
2022/05/23 13:35:34;;;;;;;7.20;2.80;;;24.30;99.90;;;;;;5039210;28;20089;-81
2022/05/23 13:38:18;;;;;;;7.60;2.90;;;24.40;99.90;;;;;;5037515;28;20033;-80
2022/05/23 13:40:59;;;;;;;9.77;2.60;;;24.50;99.90;;;;;;5039925;28;20116;-82
2022/05/23 13:43:30;;;;;;;6.30;2.42;;;24.50;99.90;;;;;;5041379;28;20069;-83
2022/05/23 13:46:15;;;;;;;9.10;3.08;;;24.50;99.90;;;;;;5042313;28;20063;-82
2022/05/23 13:48:55;;;;;;;5.45;2.42;;;24.40;99.90;;;;;;5039699;28;20026;-81
2022/05/23 13:51:24;;;;;;;7.10;3.10;;;24.40;99.90;;;;;;5039951;28;20067;-81
2022/05/23 13:53:56;;;;;;;7.80;2.60;;;24.20;99.90;;;;;;5041911;28;20064;-80
2022/05/23 13:56:22;;;;;;;9.82;3.17;;;24.10;99.90;;;;;;5049748;28;20108;-80
2022/05/23 13:59:01;;;;;;;8.55;2.58;;;23.90;99.90;;;;;;5047759;28;20030;-80
2022/05/23 14:01:59;;;;;;;6.53;2.90;;;23.90;99.90;;;;;;5042751;28;20029;-81
2022/05/23 14:04:28;;;;;;;9.30;2.83;;;23.70;99.90;;;;;;5042020;28;20152;-82
2022/05/23 14:07:15;;;;;;;8.13;3.00;;;23.60;99.90;;;;;;5040524;28;20109;-81
2022/05/23 14:09:52;;;;;;;8.80;4.40;;;23.60;99.90;;;;;;5038206;28;20404;-81
2022/05/23 14:12:26;;;;;;;7.45;3.10;;;23.50;99.90;;;;;;5035113;28;20033;-82
2022/05/23 14:15:04;;;;;;;6.90;3.30;;;23.40;99.90;;;;;;5039418;28;20491;-83